Ash, NC

6:30 PM EDT on March 26, 2015 (GMT -0400)
Henry Cannon Smith Farm | | Change Station
CLOSE
Current Station
Personal Weather Station
Location: Nakina, NC
Elevation: 0 ft
Nearby Weather Stations

Elev 0 ft 34.14 °N, 78.62 °W | Updated 10 minutes ago

Clear
Clear
69.6 °F
Feels Like 69.6 °F
N
3.0
Wind Variable Wind from NNW
Gusts 8.0 mph

Today
High -- | Low -- °F
--% Chance of Precip.
Yesterday
High -- | Low -- °F
Precip. -- in
7:09 AM 7:30 PM
Waxing Crescent, 46% visible
Pressure 29.80 in
Visibility 10.0 miles
Clouds Clear
Dew Point 63 °F
Humidity 79%
Rainfall 0.55 in
Snow Depth Not available.
UV 1 out of 12
Pollen 7.50 out of 12
Air Quality Not available.
Flu Activity Not available.
METAR KCPC 262215Z AUTO 17006KT 10SM CLR 22/16 A2980 RMK AO2 T02170157

More Conditions Fewer Conditions

Pressure 29.80 in
Visibility 10.0 miles
Clouds Clear
Dew Point 63 °F
Humidity 79%
Rainfall 0.55 in
Snow Depth Not available.
UV 1 out of 12
Pollen 7.50 out of 12
Air Quality Not available.
Flu Activity Not available.
METAR KCPC 262215Z AUTO 17006KT 10SM CLR 22/16 A2980 RMK AO2 T02170157

More Conditions Fewer Conditions

10-Day Weather Forecast

Almanac

Astronomy

Mar. 26, 2015 Rise Set
Actual Time
Civil Twilight
Nautical Twilight
Astronomical Twilight
Moon
Length of Visible Light
Length of Day
Tomorrow will be .
, % of the Moon is Illuminated

Today's Extremes

State Highs State Lows

Community

WunderPhotos

Upload Photos

1,808,628 photos uploaded!

WunderBlogs® & News

Nearby

Air Quality

  Air Quality AQ Index Pollutant
Not available.

Snow Depth

Station Depth Elevation

Earthquake Activity

City Distance Mag. Time & Date
Minimum magnitude displayed is 2.5.

Coastal Water Temperatures

Place Temperature

Stations

Nearby Weather Stations

Station Location Temp. Windchill Dew Point Humidity Wind Precip. Elev Updated Type